createdAt,value
2018-11-10T00:03:12.102Z,31.40
2018-11-10T00:08:06.626Z,31.83
2018-11-10T00:13:01.044Z,33.47
2018-11-10T00:17:55.496Z,34.30
2018-11-10T00:22:50.110Z,37.30
2018-11-10T00:27:45.712Z,34.87
2018-11-10T00:32:40.187Z,35.43
2018-11-10T00:37:34.797Z,33.93
2018-11-10T00:42:29.416Z,34.97
2018-11-10T00:47:23.896Z,34.27
2018-11-10T00:52:18.340Z,36.23
2018-11-10T00:57:12.900Z,35.27
2018-11-10T01:02:07.421Z,35.50
2018-11-10T01:07:01.858Z,35.40
2018-11-10T01:11:56.284Z,34.63
2018-11-10T01:16:50.695Z,35.40
2018-11-10T01:21:45.118Z,34.17
2018-11-10T01:26:39.581Z,35.27
2018-11-10T01:31:34.033Z,36.73
2018-11-10T01:36:28.456Z,33.87
2018-11-10T01:41:22.871Z,35.00
2018-11-10T01:46:17.306Z,35.87
2018-11-10T01:51:11.752Z,35.97
2018-11-10T01:56:06.572Z,36.30
2018-11-10T02:01:01.004Z,37.17
2018-11-10T02:05:55.436Z,35.63
2018-11-10T02:10:49.841Z,34.53
2018-11-10T02:15:44.288Z,35.10
2018-11-10T02:20:38.761Z,34.93
2018-11-10T02:25:33.948Z,36.73
2018-11-10T02:30:28.421Z,36.67
2018-11-10T02:35:22.819Z,36.40
2018-11-10T02:40:17.223Z,34.10
2018-11-10T02:45:13.052Z,35.67
2018-11-10T02:50:07.586Z,33.93
2018-11-10T02:55:01.995Z,37.47
2018-11-10T02:59:56.408Z,37.10
2018-11-10T03:04:50.845Z,36.37
2018-11-10T03:09:45.240Z,37.07
2018-11-10T03:14:39.660Z,39.27
2018-11-10T03:19:34.081Z,37.70
2018-11-10T03:24:28.511Z,38.20
2018-11-10T03:29:22.928Z,38.53
2018-11-10T03:34:17.387Z,39.00
2018-11-10T03:39:13.022Z,38.60
2018-11-10T03:44:07.932Z,37.10
2018-11-10T03:49:02.342Z,38.07
2018-11-10T03:53:56.749Z,38.33
2018-11-10T03:58:51.221Z,37.03
2018-11-10T04:03:45.620Z,35.83
2018-11-10T04:08:40.033Z,35.73
2018-11-10T04:13:34.444Z,34.47
2018-11-10T04:18:28.872Z,37.33
2018-11-10T04:23:23.436Z,35.50
2018-11-10T04:28:17.842Z,35.97
2018-11-10T04:33:12.240Z,36.90
2018-11-10T04:38:07.036Z,36.53
2018-11-10T04:43:01.460Z,38.40
2018-11-10T04:47:55.860Z,34.87
2018-11-10T04:52:50.274Z,38.90
2018-11-10T04:57:44.674Z,35.53
2018-11-10T05:02:39.108Z,37.90
2018-11-10T05:07:33.527Z,36.57
2018-11-10T05:12:27.944Z,36.83
2018-11-10T05:17:22.372Z,38.57
2018-11-10T05:22:16.776Z,37.60
2018-11-10T05:27:11.161Z,37.83
2018-11-10T05:32:05.632Z,37.27
2018-11-10T05:37:00.058Z,38.53
2018-11-10T05:41:54.467Z,38.43
2018-11-10T05:46:48.893Z,39.23
2018-11-10T05:51:43.291Z,39.30
2018-11-10T05:56:37.735Z,39.20
2018-11-10T06:01:32.169Z,39.23
2018-11-10T06:06:26.560Z,37.60
2018-11-10T06:11:20.977Z,36.00
2018-11-10T06:16:15.561Z,38.10
2018-11-10T06:21:09.829Z,38.53
2018-11-10T06:26:04.327Z,37.83
2018-11-10T06:30:58.740Z,36.80
2018-11-10T06:35:53.179Z,37.63
2018-11-10T06:40:47.683Z,38.83
2018-11-10T06:45:42.114Z,39.47
2018-11-10T06:50:36.544Z,37.47
2018-11-10T06:55:30.957Z,38.27
2018-11-10T07:00:25.429Z,38.00
2018-11-10T07:05:19.844Z,38.10
2018-11-10T07:10:14.340Z,37.83
2018-11-10T07:15:09.780Z,36.57
2018-11-10T07:20:04.249Z,36.67
2018-11-10T07:24:58.774Z,35.60
2018-11-10T07:29:53.320Z,34.07
2018-11-10T07:34:47.760Z,35.03
2018-11-10T07:39:42.224Z,35.27
2018-11-10T07:44:36.669Z,35.57
2018-11-10T07:49:31.314Z,34.03
2018-11-10T07:54:25.803Z,31.77
2018-11-10T07:59:20.297Z,33.67
2018-11-10T08:04:14.846Z,31.30
2018-11-10T08:09:10.376Z,32.00
2018-11-10T08:14:05.116Z,29.63
2018-11-10T08:18:59.576Z,28.03
2018-11-10T08:23:54.016Z,27.00
2018-11-10T08:28:48.492Z,28.30
2018-11-10T08:33:42.916Z,28.43
2018-11-10T08:38:37.356Z,27.67
2018-11-10T08:43:31.817Z,28.13
2018-11-10T08:48:26.248Z,26.97
2018-11-10T08:53:20.769Z,28.50
2018-11-10T08:58:15.324Z,28.93
2018-11-10T09:03:09.873Z,29.43
2018-11-10T09:08:04.440Z,28.23
2018-11-10T09:12:58.966Z,29.87
2018-11-10T09:17:53.515Z,30.07
2018-11-10T09:22:48.025Z,31.60
2018-11-10T09:27:42.512Z,29.83
2018-11-10T09:32:37.220Z,29.73
2018-11-10T09:37:31.677Z,29.60
2018-11-10T09:42:26.275Z,28.33
2018-11-10T09:47:20.689Z,28.37
2018-11-10T09:52:15.200Z,28.63
2018-11-10T09:57:09.744Z,29.23
2018-11-10T10:02:04.585Z,26.33
2018-11-10T10:06:58.788Z,28.67
2018-11-10T10:11:53.297Z,28.20
2018-11-10T10:16:47.952Z,28.70
2018-11-10T10:21:42.355Z,27.93
2018-11-10T10:26:36.756Z,26.43
2018-11-10T10:31:31.294Z,25.67
2018-11-10T10:36:25.814Z,26.37
2018-11-10T10:41:20.363Z,25.30
2018-11-10T10:46:14.793Z,25.53
2018-11-10T10:51:09.237Z,25.87
2018-11-10T10:56:03.757Z,24.80
2018-11-10T11:01:03.269Z,24.97
2018-11-10T11:05:58.616Z,25.33
2018-11-10T11:10:53.080Z,24.07
2018-11-10T11:15:47.570Z,24.80
2018-11-10T11:20:41.957Z,24.40
2018-11-10T11:25:36.371Z,24.40
2018-11-10T11:30:30.844Z,22.33
2018-11-10T11:35:25.322Z,20.80
2018-11-10T11:40:19.797Z,20.43
2018-11-10T11:45:14.673Z,19.00
2018-11-10T11:50:11.073Z,19.23
2018-11-10T11:55:06.026Z,19.57
2018-11-10T12:00:00.469Z,20.97
2018-11-10T12:04:55.006Z,21.27
2018-11-10T12:09:49.460Z,21.37
2018-11-10T12:14:43.861Z,19.17
2018-11-10T12:19:38.302Z,19.57
2018-11-10T12:24:32.732Z,20.00
2018-11-10T12:29:27.291Z,19.63
2018-11-10T12:34:21.740Z,20.03
2018-11-10T12:39:16.169Z,20.67
2018-11-10T12:44:10.836Z,19.63
2018-11-10T12:49:05.554Z,19.77
2018-11-10T12:53:59.920Z,20.00
2018-11-10T12:58:54.356Z,21.13
2018-11-10T13:03:48.793Z,19.80
2018-11-10T13:08:43.285Z,20.53
2018-11-10T13:13:37.793Z,20.80
2018-11-10T13:18:32.244Z,22.53
2018-11-10T13:23:26.676Z,21.50
2018-11-10T13:28:21.137Z,20.80
2018-11-10T13:33:15.578Z,22.17
2018-11-10T13:38:10.220Z,24.20
2018-11-10T13:43:06.331Z,23.43
2018-11-10T13:48:01.086Z,23.73
2018-11-10T13:52:55.927Z,24.40
2018-11-10T13:57:49.940Z,23.90
2018-11-10T14:02:44.893Z,25.60
2018-11-10T14:07:39.381Z,24.57
2018-11-10T14:12:33.843Z,24.17
2018-11-10T14:17:28.344Z,24.73
2018-11-10T14:22:22.820Z,26.33
2018-11-10T14:27:17.260Z,25.13
2018-11-10T14:32:11.732Z,24.67
2018-11-10T14:37:06.345Z,26.13
2018-11-10T14:42:00.757Z,24.90
2018-11-10T14:46:55.216Z,24.53
2018-11-10T14:51:49.677Z,24.17
2018-11-10T14:56:44.145Z,24.77
2018-11-10T15:01:38.591Z,24.63
2018-11-10T15:06:33.077Z,24.03
2018-11-10T15:11:27.571Z,24.30
2018-11-10T15:16:21.989Z,24.07
2018-11-10T15:21:16.420Z,24.60
2018-11-10T15:26:10.861Z,23.93
2018-11-10T15:31:05.415Z,24.60
2018-11-10T15:35:59.862Z,24.23
2018-11-10T15:40:54.313Z,23.43
2018-11-10T15:45:48.757Z,24.50
2018-11-10T15:50:43.154Z,22.77
2018-11-10T15:55:37.688Z,24.43
2018-11-10T16:00:32.103Z,24.30
2018-11-10T16:05:26.572Z,23.87
2018-11-10T16:10:21.118Z,24.20
2018-11-10T16:15:16.824Z,23.43
2018-11-10T16:20:15.104Z,24.23
2018-11-10T16:25:10.413Z,23.43
2018-11-10T16:30:05.422Z,24.73
2018-11-10T16:34:59.932Z,24.73
2018-11-10T16:39:54.389Z,23.73
2018-11-10T16:44:48.807Z,25.30
2018-11-10T16:49:43.274Z,24.37
2018-11-10T16:54:37.720Z,26.00
2018-11-10T16:59:32.141Z,25.80
2018-11-10T17:04:26.617Z,26.27
2018-11-10T17:09:21.108Z,25.10
2018-11-10T17:14:15.629Z,26.40
2018-11-10T17:19:10.868Z,25.87
2018-11-10T17:24:05.544Z,25.23
2018-11-10T17:29:00.003Z,24.20
2018-11-10T17:33:54.478Z,32.97
2018-11-10T17:38:48.957Z,38.97
2018-11-10T17:43:43.404Z,35.03
2018-11-10T17:48:37.873Z,33.37
2018-11-10T17:53:32.332Z,31.73
2018-11-10T17:58:26.819Z,31.00
2018-11-10T18:03:21.281Z,32.47
2018-11-10T18:08:15.712Z,27.40
2018-11-10T18:13:10.269Z,26.73
2018-11-10T18:18:04.993Z,27.43
2018-11-10T18:22:59.428Z,26.57
2018-11-10T18:27:53.897Z,27.07
2018-11-10T18:32:48.345Z,25.70
2018-11-10T18:37:43.263Z,25.77
2018-11-10T18:42:37.723Z,25.87
2018-11-10T18:47:32.466Z,27.53
2018-11-10T18:52:27.111Z,27.97
2018-11-10T18:57:21.614Z,28.90
2018-11-10T19:02:16.042Z,28.43
2018-11-10T19:07:10.568Z,30.97
2018-11-10T19:12:05.268Z,28.80
2018-11-10T19:16:59.844Z,26.83
2018-11-10T19:21:54.258Z,29.40
2018-11-10T19:26:48.692Z,28.33
2018-11-10T19:31:43.171Z,28.40
2018-11-10T19:36:37.764Z,29.17
2018-11-10T19:41:32.208Z,29.23
2018-11-10T19:46:26.676Z,27.80
2018-11-10T19:51:21.370Z,25.70
2018-11-10T19:56:15.569Z,28.43
2018-11-10T20:01:10.776Z,27.00
2018-11-10T20:06:05.240Z,25.40
2018-11-10T20:10:59.688Z,26.80
2018-11-10T20:15:54.103Z,28.03
2018-11-10T20:20:48.572Z,27.20
2018-11-10T20:25:43.025Z,28.87
2018-11-10T20:30:37.497Z,28.57
2018-11-10T20:35:32.042Z,27.87
2018-11-10T20:40:26.507Z,28.67
2018-11-10T20:45:22.450Z,27.40
2018-11-10T20:50:17.319Z,28.23
2018-11-10T20:55:12.528Z,27.73
2018-11-10T21:00:10.875Z,28.73
2018-11-10T21:05:06.404Z,30.00
2018-11-10T21:10:00.860Z,30.53
2018-11-10T21:14:55.292Z,28.83
2018-11-10T21:19:49.775Z,28.00
2018-11-10T21:24:44.328Z,29.03
2018-11-10T21:29:39.001Z,28.30
2018-11-10T21:34:33.254Z,29.33
2018-11-10T21:39:27.672Z,29.00
2018-11-10T21:44:22.352Z,28.97
2018-11-10T21:49:16.808Z,28.50
2018-11-10T21:54:11.246Z,27.20
2018-11-10T21:59:05.768Z,29.87
2018-11-10T22:04:00.275Z,28.20
2018-11-10T22:08:54.738Z,28.73
2018-11-10T22:13:49.148Z,28.33
2018-11-10T22:18:43.571Z,29.70
2018-11-10T22:23:38.017Z,30.73
2018-11-10T22:28:32.480Z,29.20
2018-11-10T22:33:26.912Z,29.93
2018-11-10T22:38:21.351Z,29.30
2018-11-10T22:43:15.788Z,30.03
2018-11-10T22:48:10.261Z,32.37
2018-11-10T22:53:04.796Z,32.13
2018-11-10T22:57:59.276Z,33.53
2018-11-10T23:02:55.096Z,34.13
2018-11-10T23:07:49.576Z,33.07
2018-11-10T23:12:45.101Z,31.67
2018-11-10T23:17:40.032Z,32.83
2018-11-10T23:22:34.507Z,32.97
2018-11-10T23:27:28.987Z,31.87
2018-11-10T23:32:23.593Z,31.23
2018-11-10T23:37:18.090Z,32.47
2018-11-10T23:42:12.562Z,32.53
2018-11-10T23:47:07.232Z,31.67
2018-11-10T23:52:01.700Z,32.13
2018-11-10T23:56:56.244Z,31.80
